createdAt,value
2023-03-01T00:01:56.424Z,15.82
2023-03-01T00:04:22.926Z,14.15
2023-03-01T00:06:49.435Z,15.95
2023-03-01T00:09:16.517Z,15.68
2023-03-01T00:11:43.211Z,15.20
2023-03-01T00:14:09.914Z,15.80
2023-03-01T00:16:40.988Z,15.27
2023-03-01T00:19:14.706Z,14.80
2023-03-01T00:21:41.578Z,16.30
2023-03-01T00:24:08.638Z,15.40
2023-03-01T00:26:35.181Z,16.48
2023-03-01T00:29:01.905Z,16.95
2023-03-01T00:31:30.208Z,15.80
2023-03-01T00:33:58.132Z,15.00
2023-03-01T00:36:25.902Z,16.10
2023-03-01T00:38:52.772Z,16.02
2023-03-01T00:41:23.629Z,16.90
2023-03-01T00:43:51.094Z,16.00
2023-03-01T00:46:19.066Z,16.63
2023-03-01T00:48:45.708Z,17.15
2023-03-01T00:51:13.572Z,15.23
2023-03-01T00:53:40.497Z,17.20
2023-03-01T00:56:07.613Z,14.50
2023-03-01T00:58:34.449Z,16.20
2023-03-01T01:01:01.177Z,16.05
2023-03-01T01:03:27.728Z,14.68
2023-03-01T01:05:54.784Z,15.98
2023-03-01T01:08:21.788Z,14.73
2023-03-01T01:10:48.643Z,15.40
2023-03-01T01:13:15.186Z,14.27
2023-03-01T01:15:41.815Z,17.25
2023-03-01T01:18:08.387Z,17.15
2023-03-01T01:20:36.055Z,16.33
2023-03-01T01:23:02.765Z,16.58
2023-03-01T01:25:29.354Z,17.95
2023-03-01T01:27:55.934Z,14.75
2023-03-01T01:30:22.395Z,17.45
2023-03-01T01:32:48.861Z,16.88
2023-03-01T01:35:15.583Z,17.60
2023-03-01T01:37:42.135Z,17.88
2023-03-01T01:40:10.471Z,17.23
2023-03-01T01:42:37.037Z,16.90
2023-03-01T01:45:22.797Z,16.95
2023-03-01T01:47:49.754Z,16.90
2023-03-01T01:50:18.588Z,17.65
2023-03-01T01:52:47.386Z,18.00
2023-03-01T01:55:21.869Z,17.55
2023-03-01T01:57:51.150Z,20.02
2023-03-01T02:00:19.255Z,19.45
2023-03-01T02:02:47.717Z,18.52
2023-03-01T02:05:27.084Z,20.20
2023-03-01T02:07:53.991Z,19.05
2023-03-01T02:10:22.455Z,22.05
2023-03-01T02:12:49.057Z,18.55
2023-03-01T02:15:15.695Z,20.58
2023-03-01T02:17:42.218Z,20.92
2023-03-01T02:20:17.644Z,18.75
2023-03-01T02:22:45.256Z,20.85
2023-03-01T02:25:21.118Z,20.05
2023-03-01T02:28:01.151Z,19.75
2023-03-01T02:30:28.429Z,20.60
2023-03-01T02:33:00.472Z,20.10
2023-03-01T02:35:27.408Z,19.65
2023-03-01T02:37:58.055Z,20.17
2023-03-01T02:40:24.831Z,18.60
2023-03-01T02:42:54.676Z,18.80
2023-03-01T02:45:21.222Z,20.15
2023-03-01T02:47:48.021Z,19.80
2023-03-01T02:50:29.813Z,20.88
2023-03-01T02:52:56.467Z,20.80
2023-03-01T02:55:23.518Z,20.80
2023-03-01T02:57:52.971Z,18.60
2023-03-01T03:00:20.955Z,19.92
2023-03-01T03:02:51.912Z,22.33
2023-03-01T03:05:20.931Z,20.15
2023-03-01T03:07:49.479Z,21.58
2023-03-01T03:10:24.329Z,22.42
2023-03-01T03:12:52.503Z,23.08
2023-03-01T03:15:18.981Z,21.98
2023-03-01T03:17:46.490Z,21.38
2023-03-01T03:20:14.011Z,22.20
2023-03-01T03:22:40.921Z,22.02
2023-03-01T03:25:11.349Z,21.58
2023-03-01T03:27:38.940Z,22.60
2023-03-01T03:30:09.931Z,21.80
2023-03-01T03:32:37.035Z,21.23
2023-03-01T03:35:10.306Z,24.75
2023-03-01T03:37:56.632Z,22.75
2023-03-01T03:40:23.443Z,23.88
2023-03-01T03:42:50.162Z,22.80
2023-03-01T03:45:17.566Z,23.90
2023-03-01T03:47:44.519Z,24.40
2023-03-01T03:50:15.768Z,22.77
2023-03-01T03:52:42.365Z,21.63
2023-03-01T03:55:10.577Z,24.75
2023-03-01T03:57:41.084Z,22.38
2023-03-01T04:00:14.559Z,25.63
2023-03-01T04:02:42.576Z,25.38
2023-03-01T04:05:10.117Z,26.52
2023-03-01T04:07:36.961Z,25.70
2023-03-01T04:10:04.110Z,23.17
2023-03-01T04:12:30.751Z,25.27
2023-03-01T04:14:57.325Z,25.48
2023-03-01T04:17:23.815Z,29.80
2023-03-01T04:19:50.518Z,26.80
2023-03-01T04:22:18.403Z,27.38
2023-03-01T04:24:45.432Z,26.10
2023-03-01T04:27:12.380Z,27.35
2023-03-01T04:29:38.952Z,24.60
2023-03-01T04:32:06.055Z,23.25
2023-03-01T04:34:32.649Z,24.00
2023-03-01T04:36:59.131Z,25.83
2023-03-01T04:39:25.552Z,26.77
2023-03-01T04:41:52.122Z,24.95
2023-03-01T04:44:18.714Z,24.25
2023-03-01T04:46:45.176Z,20.70
2023-03-01T04:49:11.784Z,27.33
2023-03-01T04:51:38.701Z,24.60
2023-03-01T04:54:09.579Z,23.60
2023-03-01T04:56:36.078Z,26.60
2023-03-01T04:59:06.596Z,27.08
2023-03-01T05:01:33.162Z,24.95
2023-03-01T05:04:03.885Z,26.40
2023-03-01T05:06:30.732Z,24.83
2023-03-01T05:08:57.481Z,26.73
2023-03-01T05:11:24.199Z,25.88
2023-03-01T05:13:55.819Z,28.20
2023-03-01T05:16:22.574Z,26.33
2023-03-01T05:18:51.557Z,28.00
2023-03-01T05:21:18.365Z,26.98
2023-03-01T05:23:45.108Z,29.45
2023-03-01T05:26:27.408Z,26.67
2023-03-01T05:28:59.389Z,30.00
2023-03-01T05:31:25.915Z,25.10
2023-03-01T05:33:53.720Z,27.25
2023-03-01T05:36:20.333Z,31.55
2023-03-01T05:38:47.096Z,27.08
2023-03-01T05:41:18.121Z,28.08
2023-03-01T05:43:45.861Z,28.10
2023-03-01T05:46:14.196Z,27.10
2023-03-01T05:48:41.002Z,28.70
2023-03-01T05:51:08.056Z,28.42
2023-03-01T05:53:34.572Z,30.00
2023-03-01T05:56:03.838Z,29.83
2023-03-01T05:58:30.359Z,26.95
2023-03-01T06:00:57.365Z,29.00
2023-03-01T06:03:23.920Z,27.52
2023-03-01T06:05:50.428Z,27.35
2023-03-01T06:08:16.903Z,29.42
2023-03-01T06:10:43.466Z,28.75
2023-03-01T06:13:10.009Z,28.58
2023-03-01T06:15:36.474Z,27.70
2023-03-01T06:18:02.970Z,27.30
2023-03-01T06:20:29.690Z,27.90
2023-03-01T06:22:56.673Z,29.08
2023-03-01T06:25:24.093Z,27.00
2023-03-01T06:27:50.823Z,25.05
2023-03-01T06:30:19.122Z,26.85
2023-03-01T06:32:45.876Z,29.35
2023-03-01T06:35:13.437Z,29.08
2023-03-01T06:37:40.427Z,27.98
2023-03-01T06:40:09.107Z,25.65
2023-03-01T06:42:36.419Z,28.25
2023-03-01T06:45:03.388Z,26.48
2023-03-01T06:47:30.629Z,25.60
2023-03-01T06:49:57.259Z,23.75
2023-03-01T06:52:23.808Z,22.88
2023-03-01T06:54:50.612Z,22.10
2023-03-01T06:57:17.365Z,21.80
2023-03-01T06:59:43.916Z,19.75
2023-03-01T07:02:11.316Z,19.58
2023-03-01T07:04:37.815Z,17.48
2023-03-01T07:07:04.393Z,17.35
2023-03-01T07:09:31.070Z,17.08
2023-03-01T07:11:57.801Z,18.75
2023-03-01T07:14:27.464Z,18.73
2023-03-01T07:16:54.276Z,18.67
2023-03-01T07:19:21.341Z,17.88
2023-03-01T07:21:48.211Z,16.58
2023-03-01T07:24:14.921Z,18.15
2023-03-01T07:26:41.395Z,18.65
2023-03-01T07:29:08.624Z,19.48
2023-03-01T07:31:35.229Z,18.88
2023-03-01T07:34:01.729Z,20.38
2023-03-01T07:36:28.435Z,20.13
2023-03-01T07:38:56.694Z,18.20
2023-03-01T07:41:23.254Z,16.98
2023-03-01T07:43:49.739Z,18.83
2023-03-01T07:46:16.237Z,17.52
2023-03-01T07:48:42.886Z,17.35
2023-03-01T07:51:10.752Z,18.38
2023-03-01T07:53:37.788Z,18.05
2023-03-01T07:56:07.439Z,18.90
2023-03-01T07:58:38.784Z,18.65
2023-03-01T08:01:06.120Z,18.92
2023-03-01T08:03:32.966Z,20.98
2023-03-01T08:06:03.379Z,17.95
2023-03-01T08:08:30.220Z,17.58
2023-03-01T08:11:00.733Z,17.15
2023-03-01T08:13:27.537Z,18.33
2023-03-01T08:15:54.376Z,16.83
2023-03-01T08:18:21.932Z,18.30
2023-03-01T08:20:49.060Z,18.17
2023-03-01T08:23:15.667Z,17.75
2023-03-01T08:25:42.481Z,16.93
2023-03-01T08:28:09.120Z,18.83
2023-03-01T08:30:35.726Z,16.95
2023-03-01T08:33:02.373Z,18.00
2023-03-01T08:35:28.912Z,17.60
2023-03-01T08:37:55.662Z,17.13
2023-03-01T08:40:22.240Z,17.20
2023-03-01T08:42:48.741Z,17.80
2023-03-01T08:45:19.167Z,17.80
2023-03-01T08:47:46.354Z,18.80
2023-03-01T08:50:12.863Z,18.33
2023-03-01T08:52:39.452Z,17.20
2023-03-01T08:55:06.302Z,17.30
2023-03-01T08:57:32.764Z,18.70
2023-03-01T08:59:59.553Z,18.10
2023-03-01T09:02:26.123Z,17.60
2023-03-01T09:04:52.627Z,19.50
2023-03-01T09:07:19.190Z,17.07
2023-03-01T09:09:45.764Z,17.63
2023-03-01T09:12:12.346Z,19.07
2023-03-01T09:14:39.824Z,18.40
2023-03-01T09:17:06.506Z,19.00
2023-03-01T09:19:33.101Z,17.37
2023-03-01T09:21:59.624Z,18.50
2023-03-01T09:24:26.482Z,17.60
2023-03-01T09:26:56.915Z,17.30
2023-03-01T09:29:23.806Z,19.37
2023-03-01T09:31:50.405Z,19.47
2023-03-01T09:34:20.326Z,17.83
2023-03-01T09:36:47.123Z,18.20
2023-03-01T09:39:13.882Z,18.00
2023-03-01T09:41:55.860Z,17.67
2023-03-01T09:44:28.162Z,15.80
2023-03-01T09:46:54.786Z,18.53
2023-03-01T09:49:31.935Z,18.93
2023-03-01T09:52:04.448Z,18.40
2023-03-01T09:54:31.455Z,18.30
2023-03-01T09:57:12.392Z,18.60
2023-03-01T09:59:56.224Z,14.07
2023-03-01T10:02:27.888Z,18.63
2023-03-01T10:05:14.078Z,20.20
2023-03-01T10:07:40.742Z,18.13
2023-03-01T10:10:08.770Z,19.07
2023-03-01T10:12:42.459Z,17.80
2023-03-01T10:15:15.449Z,14.10
2023-03-01T10:17:51.090Z,17.10
2023-03-01T10:20:22.979Z,19.73
2023-03-01T10:22:53.406Z,18.90
2023-03-01T10:25:38.693Z,18.33
2023-03-01T10:28:17.009Z,19.70
2023-03-01T10:30:44.887Z,13.60
2023-03-01T10:33:20.126Z,17.90
2023-03-01T10:35:46.724Z,18.00
2023-03-01T10:38:14.564Z,17.30
2023-03-01T10:40:52.282Z,19.40
2023-03-01T10:43:19.489Z,18.00
2023-03-01T10:45:46.187Z,10.87
2023-03-01T10:48:14.247Z,14.47
2023-03-01T10:50:42.533Z,18.43
2023-03-01T10:53:20.812Z,18.00
2023-03-01T10:55:47.523Z,17.27
2023-03-01T10:58:17.115Z,15.40
2023-03-01T11:00:54.436Z,20.70
2023-03-01T11:03:23.409Z,19.47
2023-03-01T11:06:00.823Z,18.60
2023-03-01T11:08:36.698Z,14.93
2023-03-01T11:11:08.181Z,16.50
2023-03-01T11:13:34.854Z,16.17
2023-03-01T11:16:02.775Z,15.27
2023-03-01T11:18:45.958Z,18.77
2023-03-01T11:21:13.940Z,16.83
2023-03-01T11:23:41.008Z,11.10
2023-03-01T11:26:11.487Z,11.77
2023-03-01T11:28:39.679Z,16.23
2023-03-01T11:31:09.806Z,17.07
2023-03-01T11:33:36.361Z,13.03
2023-03-01T11:36:06.779Z,15.20
2023-03-01T11:38:35.103Z,11.80
2023-03-01T11:41:09.580Z,14.77
2023-03-01T11:43:45.254Z,16.00
2023-03-01T11:46:12.902Z,12.80
2023-03-01T11:48:49.473Z,11.90
2023-03-01T11:51:32.254Z,9.93
2023-03-01T11:54:06.023Z,17.00
2023-03-01T11:56:35.898Z,18.00
2023-03-01T11:59:11.674Z,16.00
2023-03-01T12:01:56.674Z,14.00
2023-03-01T12:04:23.351Z,14.30
2023-03-01T12:07:10.408Z,7.33
2023-03-01T12:09:40.057Z,9.47
2023-03-01T12:12:06.536Z,14.20
2023-03-01T12:14:33.127Z,15.40
2023-03-01T12:17:07.609Z,17.80
2023-03-01T12:19:40.150Z,17.57
2023-03-01T12:22:25.444Z,17.03
2023-03-01T12:24:58.231Z,16.97
2023-03-01T12:27:30.397Z,16.60
2023-03-01T12:30:12.219Z,16.80
2023-03-01T12:32:47.084Z,14.80
2023-03-01T12:35:26.447Z,17.90
2023-03-01T12:37:52.974Z,16.67
2023-03-01T12:40:32.687Z,15.90
2023-03-01T12:43:08.271Z,16.13
2023-03-01T12:45:43.817Z,16.27
2023-03-01T12:48:16.366Z,16.40
2023-03-01T12:50:48.333Z,16.37
2023-03-01T12:53:41.198Z,14.97
2023-03-01T12:56:10.816Z,16.70
2023-03-01T12:58:50.337Z,15.20
2023-03-01T13:01:23.367Z,16.67
2023-03-01T13:04:09.016Z,16.90
2023-03-01T13:06:54.458Z,15.07
2023-03-01T13:09:27.305Z,16.70
2023-03-01T13:11:53.936Z,14.17
2023-03-01T13:14:26.581Z,15.00
2023-03-01T13:16:53.762Z,15.13
2023-03-01T13:19:22.377Z,16.07
2023-03-01T13:21:50.332Z,15.77
2023-03-01T13:24:35.772Z,16.87
2023-03-01T13:27:08.227Z,16.10
2023-03-01T13:29:53.710Z,14.27
2023-03-01T13:32:43.558Z,15.77
2023-03-01T13:35:20.167Z,13.63
2023-03-01T13:37:47.358Z,15.63
2023-03-01T13:40:19.153Z,14.43
2023-03-01T13:42:56.263Z,16.20
2023-03-01T13:45:26.499Z,15.60
2023-03-01T13:47:59.336Z,13.77
2023-03-01T13:50:28.055Z,12.93
2023-03-01T13:52:59.661Z,13.50
2023-03-01T13:55:41.823Z,12.77
2023-03-01T13:58:17.096Z,11.70
2023-03-01T14:00:43.769Z,12.60
2023-03-01T14:03:17.939Z,11.67
2023-03-01T14:06:13.028Z,10.73
2023-03-01T14:08:41.992Z,10.50
2023-03-01T14:11:34.736Z,11.30
2023-03-01T14:14:21.657Z,12.97
2023-03-01T14:17:06.990Z,10.73
2023-03-01T14:19:34.732Z,11.60
2023-03-01T14:22:05.372Z,11.23
2023-03-01T14:24:33.866Z,10.80
2023-03-01T14:27:01.946Z,10.60
2023-03-01T14:29:34.413Z,10.43
2023-03-01T14:32:20.823Z,11.30
2023-03-01T14:34:48.548Z,11.23
2023-03-01T14:37:32.329Z,10.00
2023-03-01T14:39:59.623Z,10.20
2023-03-01T14:42:28.292Z,11.37
2023-03-01T14:44:55.886Z,10.50
2023-03-01T14:47:32.797Z,11.40
2023-03-01T14:50:05.840Z,10.30
2023-03-01T14:52:37.723Z,11.20
2023-03-01T14:55:06.326Z,10.40
2023-03-01T14:57:33.322Z,10.00
2023-03-01T15:00:01.832Z,10.80
2023-03-01T15:02:29.671Z,11.70
2023-03-01T15:04:58.377Z,10.97
2023-03-01T15:07:30.535Z,11.70
2023-03-01T15:09:57.325Z,10.57
2023-03-01T15:12:29.975Z,11.10
2023-03-01T15:15:03.801Z,9.97
2023-03-01T15:17:40.141Z,10.00
2023-03-01T15:20:22.833Z,9.90
2023-03-01T15:22:49.779Z,10.47
2023-03-01T15:25:20.268Z,10.63
2023-03-01T15:27:47.864Z,11.23
2023-03-01T15:30:19.437Z,10.47
2023-03-01T15:32:46.905Z,10.87
2023-03-01T15:35:32.588Z,10.27
2023-03-01T15:38:01.416Z,10.90
2023-03-01T15:40:32.750Z,11.03
2023-03-01T15:42:59.991Z,10.83
2023-03-01T15:45:28.793Z,11.43
2023-03-01T15:48:00.211Z,11.60
2023-03-01T15:50:31.560Z,11.87
2023-03-01T15:52:59.073Z,12.10
2023-03-01T15:55:31.161Z,11.53
2023-03-01T15:58:10.621Z,12.33
2023-03-01T16:00:37.633Z,13.00
2023-03-01T16:03:04.377Z,13.20
2023-03-01T16:05:32.845Z,12.43
2023-03-01T16:07:59.853Z,12.27
2023-03-01T16:10:26.683Z,12.80
2023-03-01T16:12:53.705Z,12.60
2023-03-01T16:15:29.447Z,12.37
2023-03-01T16:17:59.281Z,13.03
2023-03-01T16:20:28.790Z,12.87
2023-03-01T16:22:56.127Z,11.87
2023-03-01T16:25:22.855Z,12.80
2023-03-01T16:27:50.472Z,12.70
2023-03-01T16:30:19.137Z,11.97
2023-03-01T16:32:46.812Z,12.53
2023-03-01T16:35:14.474Z,14.13
2023-03-01T16:37:41.498Z,13.63
2023-03-01T16:40:16.662Z,12.13
2023-03-01T16:42:43.227Z,12.57
2023-03-01T16:45:22.728Z,13.40
2023-03-01T16:47:51.099Z,12.43
2023-03-01T16:50:17.653Z,12.10
2023-03-01T16:52:44.286Z,14.47
2023-03-01T16:55:11.132Z,12.90
2023-03-01T16:57:38.464Z,13.87
2023-03-01T17:00:10.486Z,12.20
2023-03-01T17:02:37.460Z,12.30
2023-03-01T17:05:04.590Z,12.57
2023-03-01T17:07:34.332Z,12.20
2023-03-01T17:10:01.470Z,11.23
2023-03-01T17:12:28.837Z,13.20
2023-03-01T17:14:55.431Z,11.70
2023-03-01T17:17:22.544Z,13.83
2023-03-01T17:19:49.159Z,11.03
2023-03-01T17:22:16.358Z,10.90
2023-03-01T17:24:44.022Z,11.10
2023-03-01T17:27:12.544Z,10.57
2023-03-01T17:29:39.734Z,12.10
2023-03-01T17:32:07.027Z,10.40
2023-03-01T17:34:34.271Z,11.50
2023-03-01T17:37:00.975Z,11.10
2023-03-01T17:39:29.330Z,10.83
2023-03-01T17:41:57.690Z,11.03
2023-03-01T17:44:24.401Z,13.10
2023-03-01T17:46:50.958Z,10.87
2023-03-01T17:49:18.191Z,12.17
2023-03-01T17:51:45.587Z,10.10
2023-03-01T17:54:12.181Z,9.97
2023-03-01T17:56:39.001Z,10.90
2023-03-01T17:59:05.728Z,9.60
2023-03-01T18:01:34.302Z,10.17
2023-03-01T18:04:01.062Z,10.97
2023-03-01T18:06:28.502Z,10.30
2023-03-01T18:08:55.572Z,11.80
2023-03-01T18:11:23.594Z,10.97
2023-03-01T18:13:51.210Z,10.20
2023-03-01T18:16:19.158Z,10.63
2023-03-01T18:18:45.759Z,11.03
2023-03-01T18:21:12.964Z,10.17
2023-03-01T18:23:40.221Z,10.97
2023-03-01T18:26:11.340Z,10.13
2023-03-01T18:28:39.296Z,10.53
2023-03-01T18:31:08.542Z,12.33
2023-03-01T18:33:35.594Z,11.60
2023-03-01T18:36:02.334Z,11.00
2023-03-01T18:38:29.134Z,10.13
2023-03-01T18:40:56.370Z,10.43
2023-03-01T18:43:23.757Z,11.03
2023-03-01T18:45:55.799Z,9.80
2023-03-01T18:48:22.438Z,11.23
2023-03-01T18:50:48.990Z,10.10
2023-03-01T18:53:15.580Z,10.30
2023-03-01T18:55:42.388Z,11.00
2023-03-01T18:58:09.076Z,9.73
2023-03-01T19:00:35.690Z,10.57
2023-03-01T19:03:02.475Z,11.20
2023-03-01T19:05:29.256Z,9.63
2023-03-01T19:07:56.018Z,10.90
2023-03-01T19:10:23.217Z,11.43
2023-03-01T19:12:49.918Z,11.53
2023-03-01T19:15:16.725Z,11.10
2023-03-01T19:17:44.166Z,11.57
2023-03-01T19:20:11.451Z,9.43
2023-03-01T19:22:38.213Z,11.60
2023-03-01T19:25:05.235Z,12.30
2023-03-01T19:27:31.925Z,10.77
2023-03-01T19:29:58.582Z,10.70
2023-03-01T19:32:25.233Z,12.80
2023-03-01T19:34:51.947Z,11.80
2023-03-01T19:37:18.530Z,11.17
2023-03-01T19:39:45.273Z,10.70
2023-03-01T19:42:12.234Z,11.63
2023-03-01T19:44:39.821Z,11.43
2023-03-01T19:47:06.368Z,11.53
2023-03-01T19:49:32.925Z,12.17
2023-03-01T19:51:59.447Z,10.82
2023-03-01T19:54:26.160Z,10.50
2023-03-01T19:56:52.908Z,11.30
2023-03-01T19:59:24.298Z,11.33
2023-03-01T20:01:51.941Z,10.93
2023-03-01T20:04:18.685Z,11.10
2023-03-01T20:06:46.347Z,12.67
2023-03-01T20:09:21.553Z,10.13
2023-03-01T20:11:48.996Z,11.00
2023-03-01T20:14:15.678Z,11.50
2023-03-01T20:16:42.317Z,10.82
2023-03-01T20:19:09.198Z,11.60
2023-03-01T20:21:36.056Z,10.80
2023-03-01T20:24:02.706Z,9.97
2023-03-01T20:26:29.598Z,11.17
2023-03-01T20:28:57.264Z,10.63
2023-03-01T20:31:29.214Z,11.10
2023-03-01T20:33:57.296Z,9.90
2023-03-01T20:36:24.443Z,11.00
2023-03-01T20:38:55.825Z,9.70
2023-03-01T20:41:25.918Z,11.00
2023-03-01T20:43:56.865Z,10.47
2023-03-01T20:46:23.994Z,9.83
2023-03-01T20:48:51.824Z,12.10
2023-03-01T20:51:18.824Z,9.33
2023-03-01T20:53:45.520Z,10.80
2023-03-01T20:56:14.249Z,10.73
2023-03-01T20:58:41.370Z,11.53
2023-03-01T21:01:09.127Z,11.70
2023-03-01T21:03:36.178Z,15.30
2023-03-01T21:06:03.956Z,8.70
2023-03-01T21:08:30.587Z,9.00
2023-03-01T21:10:57.704Z,10.43
2023-03-01T21:13:24.763Z,9.93
2023-03-01T21:15:54.775Z,9.93
2023-03-01T21:18:21.778Z,9.90
2023-03-01T21:20:48.643Z,11.13
2023-03-01T21:23:15.562Z,11.33
2023-03-01T21:25:42.436Z,10.75
2023-03-01T21:28:09.047Z,12.37
2023-03-01T21:30:35.683Z,12.17
2023-03-01T21:33:02.179Z,11.88
2023-03-01T21:35:28.695Z,12.30
2023-03-01T21:37:55.459Z,12.77
2023-03-01T21:40:21.955Z,11.90
2023-03-01T21:42:49.740Z,13.05
2023-03-01T21:45:16.371Z,12.03
2023-03-01T21:47:42.978Z,11.93
2023-03-01T21:50:09.991Z,13.00
2023-03-01T21:52:36.477Z,13.13
2023-03-01T21:55:04.238Z,13.65
2023-03-01T21:57:30.742Z,11.98
2023-03-01T21:59:57.418Z,14.13
2023-03-01T22:02:23.873Z,14.63
2023-03-01T22:04:57.394Z,13.90
2023-03-01T22:07:23.849Z,13.82
2023-03-01T22:09:50.364Z,13.48
2023-03-01T22:12:16.999Z,12.80
2023-03-01T22:14:43.819Z,16.35
2023-03-01T22:17:10.382Z,14.75
2023-03-01T22:19:37.117Z,16.35
2023-03-01T22:22:03.838Z,13.68
2023-03-01T22:24:30.334Z,13.30
2023-03-01T22:26:57.041Z,13.73
2023-03-01T22:29:25.067Z,11.80
2023-03-01T22:31:52.271Z,14.32
2023-03-01T22:34:19.078Z,14.30
2023-03-01T22:36:46.426Z,14.27
2023-03-01T22:39:17.723Z,14.02
2023-03-01T22:41:45.896Z,15.38
2023-03-01T22:44:14.608Z,14.07
2023-03-01T22:46:41.968Z,14.40
2023-03-01T22:49:09.954Z,14.98
2023-03-01T22:51:37.700Z,14.25
2023-03-01T22:54:04.396Z,13.75
2023-03-01T22:56:32.740Z,16.27
2023-03-01T22:59:00.504Z,14.18
2023-03-01T23:01:27.040Z,15.05
2023-03-01T23:03:53.523Z,15.60
2023-03-01T23:06:20.946Z,15.90
2023-03-01T23:08:51.552Z,16.38
2023-03-01T23:11:18.786Z,15.75
2023-03-01T23:13:45.464Z,16.38
2023-03-01T23:16:12.106Z,15.07
2023-03-01T23:18:39.216Z,16.02
2023-03-01T23:21:17.494Z,16.88
2023-03-01T23:23:46.473Z,16.63
2023-03-01T23:26:13.560Z,15.98
2023-03-01T23:28:41.037Z,16.75
2023-03-01T23:31:09.142Z,15.70
2023-03-01T23:33:38.878Z,16.33
2023-03-01T23:36:16.416Z,17.75
2023-03-01T23:38:42.939Z,17.65
2023-03-01T23:41:14.031Z,15.65
2023-03-01T23:43:43.552Z,15.82
2023-03-01T23:46:14.480Z,15.95
2023-03-01T23:48:43.188Z,15.95
2023-03-01T23:51:10.099Z,15.55
2023-03-01T23:53:37.912Z,15.35
2023-03-01T23:56:04.794Z,14.55
2023-03-01T23:58:31.388Z,14.93
